createdAt,value
2022-10-17T00:04:13.379Z,102722.94
2022-10-17T00:09:10.774Z,102722.78
2022-10-17T00:14:07.402Z,102727.44
2022-10-17T00:19:04.727Z,102726.59
2022-10-17T00:24:01.428Z,102728.72
2022-10-17T00:29:00.778Z,102737.03
2022-10-17T00:33:57.750Z,102733.81
2022-10-17T00:38:55.539Z,102736.88
2022-10-17T00:43:53.563Z,102731.44
2022-10-17T00:48:53.508Z,102731.50
2022-10-17T00:53:53.390Z,102740.50
2022-10-17T00:58:50.417Z,102741.34
2022-10-17T01:03:49.390Z,102739.03
2022-10-17T01:08:48.999Z,102734.78
2022-10-17T01:13:49.387Z,102742.16
2022-10-17T01:18:52.034Z,102742.84
2022-10-17T01:24:09.255Z,102741.06
2022-10-17T01:29:23.669Z,102744.88
2022-10-17T01:34:24.110Z,102752.69
2022-10-17T01:39:26.891Z,102750.06
2022-10-17T01:44:28.795Z,102721.59
2022-10-17T01:49:30.041Z,102755.34
2022-10-17T01:54:31.490Z,102765.16
2022-10-17T01:59:30.709Z,102767.97
2022-10-17T02:04:29.837Z,102766.19
2022-10-17T02:09:27.183Z,102757.50
2022-10-17T02:14:32.355Z,102768.00
2022-10-17T02:19:45.770Z,102767.16
2022-10-17T02:24:45.937Z,102774.75
2022-10-17T02:29:47.410Z,102780.03
2022-10-17T02:34:47.220Z,102780.50
2022-10-17T02:39:44.969Z,102788.41
2022-10-17T02:44:43.317Z,102775.41
2022-10-17T02:49:47.316Z,102795.72
2022-10-17T02:54:47.631Z,102800.91
2022-10-17T02:59:45.768Z,102801.78
2022-10-17T03:04:43.540Z,102807.84
2022-10-17T03:09:44.424Z,102806.97
2022-10-17T03:14:41.160Z,102807.34
2022-10-17T03:19:38.528Z,102801.34
2022-10-17T03:24:35.187Z,102815.28
2022-10-17T03:29:35.015Z,102811.38
2022-10-17T03:34:34.584Z,102807.84
2022-10-17T03:39:31.541Z,102814.31
2022-10-17T03:44:28.319Z,102816.50
2022-10-17T03:49:25.792Z,102824.91
2022-10-17T03:54:23.191Z,102829.69
2022-10-17T03:59:20.050Z,102838.38
2022-10-17T04:04:28.274Z,102840.56
2022-10-17T04:09:25.287Z,102857.25
2022-10-17T04:14:27.567Z,102843.53
2022-10-17T04:19:25.297Z,102859.91
2022-10-17T04:24:24.598Z,102860.47
2022-10-17T04:29:41.580Z,102854.38
2022-10-17T04:34:53.953Z,102874.16
2022-10-17T04:39:53.496Z,102863.78
2022-10-17T04:44:50.560Z,102875.88
2022-10-17T04:49:48.441Z,102879.13
2022-10-17T04:54:46.476Z,102882.72
2022-10-17T04:59:44.660Z,102878.06
2022-10-17T05:04:52.760Z,102894.75
2022-10-17T05:09:50.705Z,102886.84
2022-10-17T05:14:49.529Z,102899.22
2022-10-17T05:19:49.107Z,102909.75
2022-10-17T05:24:50.924Z,102907.28
2022-10-17T05:29:49.349Z,102917.03
2022-10-17T05:34:54.999Z,102917.00
2022-10-17T05:39:53.482Z,102918.72
2022-10-17T05:44:51.092Z,102931.00
2022-10-17T05:49:52.310Z,102946.09
2022-10-17T05:54:55.893Z,102946.91
2022-10-17T05:59:55.044Z,102966.28
2022-10-17T06:04:52.699Z,102963.75
2022-10-17T06:09:52.496Z,102967.19
2022-10-17T06:14:50.873Z,102969.88
2022-10-17T06:19:48.804Z,102941.50
2022-10-17T06:24:46.136Z,102980.31
2022-10-17T06:29:45.883Z,102981.22
2022-10-17T06:34:42.830Z,102990.84
2022-10-17T06:39:41.338Z,102994.41
2022-10-17T06:44:42.872Z,102991.78
2022-10-17T06:56:24.489Z,102997.66
2022-10-17T07:01:50.073Z,103006.16
2022-10-17T07:07:26.106Z,103006.75
2022-10-17T07:12:32.531Z,103003.88
2022-10-17T07:17:38.677Z,103008.84
2022-10-17T07:26:26.205Z,103004.28
2022-10-17T07:29:23.193Z,103012.84
2022-10-17T07:40:47.858Z,103011.47
2022-10-17T07:46:10.967Z,103013.81
2022-10-17T07:51:38.289Z,103012.09
2022-10-17T07:57:09.670Z,103008.31
2022-10-17T08:02:34.523Z,103010.59
2022-10-17T08:08:06.610Z,102997.13
2022-10-17T08:14:32.286Z,102992.44
2022-10-17T08:19:57.567Z,102989.56
2022-10-17T08:25:15.197Z,102995.97
2022-10-17T08:30:12.986Z,102986.09
2022-10-17T08:35:12.749Z,103001.81
2022-10-17T08:40:48.735Z,103004.31
2022-10-17T08:45:59.795Z,103001.63
2022-10-17T08:50:57.877Z,103003.00
2022-10-17T08:55:55.037Z,103004.56
2022-10-17T09:01:13.275Z,103001.75
2022-10-17T09:06:31.823Z,103004.22
2022-10-17T09:11:36.963Z,103004.91
2022-10-17T09:16:55.919Z,103004.00
2022-10-17T09:21:56.553Z,103001.41
2022-10-17T09:26:54.894Z,103006.78
2022-10-17T09:36:58.044Z,102999.63
2022-10-17T09:41:56.800Z,102994.63
2022-10-17T09:47:36.195Z,102985.94
2022-10-17T09:53:03.142Z,102980.03
2022-10-17T09:58:00.963Z,102982.72
2022-10-17T10:03:13.793Z,102977.97
2022-10-17T10:08:15.321Z,102972.28
2022-10-17T10:13:39.663Z,102970.19
2022-10-17T10:18:36.586Z,102950.03
2022-10-17T10:23:56.498Z,102965.00
2022-10-17T10:29:01.632Z,102952.75
2022-10-17T10:33:59.743Z,102943.53
2022-10-17T10:39:02.420Z,102953.19
2022-10-17T10:44:02.904Z,102941.38
2022-10-17T10:49:28.088Z,102939.69
2022-10-17T10:54:36.151Z,102928.72
2022-10-17T10:59:46.106Z,102915.28
2022-10-17T11:04:45.069Z,102914.69
2022-10-17T11:09:46.299Z,102917.94
2022-10-17T11:14:45.099Z,102907.38
2022-10-17T11:19:44.677Z,102902.00
2022-10-17T11:24:46.437Z,102900.50
2022-10-17T11:29:45.167Z,102889.91
2022-10-17T11:34:48.545Z,102882.88
2022-10-17T11:39:48.795Z,102858.97
2022-10-17T11:44:49.043Z,102867.47
2022-10-17T11:49:50.898Z,102867.31
2022-10-17T11:54:50.986Z,102860.06
2022-10-17T11:59:54.380Z,102863.53
2022-10-17T12:05:00.659Z,102864.88
2022-10-17T12:09:59.894Z,102864.13
2022-10-17T12:15:25.671Z,102867.44
2022-10-17T12:20:27.365Z,102841.38
2022-10-17T12:25:35.784Z,102856.44
2022-10-17T12:30:34.056Z,102856.88
2022-10-17T12:35:32.582Z,102848.66
2022-10-17T12:40:52.732Z,102845.09
2022-10-17T12:45:58.968Z,102844.94
2022-10-17T12:51:30.686Z,102838.41
2022-10-17T12:56:22.738Z,102827.50
2022-10-17T13:01:25.489Z,102830.00
2022-10-17T13:06:26.203Z,102829.91
2022-10-17T13:11:25.663Z,102832.34
2022-10-17T13:16:47.644Z,102836.69
2022-10-17T13:22:06.742Z,102828.53
2022-10-17T13:27:28.881Z,102824.97
2022-10-17T13:32:34.788Z,102828.53
2022-10-17T13:37:34.706Z,102836.53
2022-10-17T13:42:39.321Z,102840.97
2022-10-17T13:47:39.044Z,102843.63
2022-10-17T13:52:35.870Z,102827.13
2022-10-17T13:57:33.690Z,102824.47
2022-10-17T14:02:31.689Z,102837.69
2022-10-17T14:07:58.280Z,102842.28
2022-10-17T14:12:52.296Z,102823.06
2022-10-17T14:17:54.656Z,102840.69
2022-10-17T14:23:21.610Z,102838.78
2022-10-17T14:28:16.339Z,102839.44
2022-10-17T14:33:17.694Z,102815.41
2022-10-17T14:38:21.626Z,102834.59
2022-10-17T14:43:23.547Z,102834.59
2022-10-17T14:48:27.132Z,102838.09
2022-10-17T14:53:29.568Z,102845.03
2022-10-17T14:58:27.665Z,102845.13
2022-10-17T15:03:24.616Z,102847.69
2022-10-17T15:08:22.747Z,102853.75
2022-10-17T15:13:29.004Z,102854.63
2022-10-17T15:18:26.341Z,102855.56
2022-10-17T15:23:23.145Z,102862.66
2022-10-17T15:28:20.618Z,102863.63
2022-10-17T15:33:17.510Z,102860.16
2022-10-17T15:38:17.925Z,102854.78
2022-10-17T15:43:19.594Z,102860.09
2022-10-17T15:48:19.213Z,102867.28
2022-10-17T15:53:15.984Z,102875.19
2022-10-17T15:58:15.120Z,102880.38
2022-10-17T16:03:11.995Z,102881.69
2022-10-17T16:08:09.368Z,102889.53
2022-10-17T16:13:06.201Z,102894.97
2022-10-17T16:18:05.973Z,102896.97
2022-10-17T16:23:04.319Z,102908.63
2022-10-17T16:28:01.533Z,102902.78
2022-10-17T16:32:58.384Z,102906.47
2022-10-17T16:37:57.962Z,102902.25
2022-10-17T16:42:57.559Z,102903.56
2022-10-17T16:47:56.213Z,102913.13
2022-10-17T16:52:52.815Z,102915.50
2022-10-17T16:57:49.645Z,102912.75
2022-10-17T17:02:48.073Z,102917.41
2022-10-17T17:07:48.592Z,102915.41
2022-10-17T17:12:45.342Z,102922.44
2022-10-17T17:17:51.282Z,102923.94
2022-10-17T17:22:50.464Z,102925.50
2022-10-17T17:27:47.526Z,102926.25
2022-10-17T17:32:44.245Z,102919.00
2022-10-17T17:37:40.939Z,102921.59
2022-10-17T17:42:40.305Z,102920.03
2022-10-17T17:47:39.920Z,102915.19
2022-10-17T17:52:36.498Z,102918.72
2022-10-17T17:57:36.022Z,102921.50
2022-10-17T18:02:35.106Z,102926.69
2022-10-17T18:07:31.805Z,102936.28
2022-10-17T18:12:32.392Z,102933.97
2022-10-17T18:17:37.407Z,102924.13
2022-10-17T18:22:35.081Z,102939.13
2022-10-17T18:27:31.842Z,102938.81
2022-10-17T18:32:30.436Z,102943.34
2022-10-17T18:37:27.982Z,102936.25
2022-10-17T18:42:33.645Z,102941.34
2022-10-17T18:47:30.588Z,102945.03
2022-10-17T18:52:28.350Z,102941.75
2022-10-17T18:57:26.221Z,102935.78
2022-10-17T19:02:26.348Z,102941.16
2022-10-17T19:07:22.958Z,102942.69
2022-10-17T19:12:20.325Z,102955.75
2022-10-17T19:17:19.395Z,102962.38
2022-10-17T19:22:16.033Z,102958.91
2022-10-17T19:27:13.148Z,102969.22
2022-10-17T19:32:15.657Z,102948.81
2022-10-17T19:37:14.821Z,102959.31
2022-10-17T19:42:13.046Z,102961.25
2022-10-17T19:47:10.586Z,102963.47
2022-10-17T19:52:07.234Z,102965.69
2022-10-17T19:57:08.035Z,102961.03
2022-10-17T20:02:07.143Z,102968.84
2022-10-17T20:07:04.736Z,102970.50
2022-10-17T20:12:01.450Z,102973.00
2022-10-17T20:16:58.236Z,102976.69
2022-10-17T20:21:54.887Z,102976.84
2022-10-17T20:26:52.117Z,102964.97
2022-10-17T20:31:49.124Z,102969.34
2022-10-17T20:36:46.173Z,102959.75
2022-10-17T20:41:43.293Z,102957.66
2022-10-17T20:46:45.167Z,102956.19
2022-10-17T20:51:45.911Z,102938.69
2022-10-17T20:56:42.477Z,102945.53
2022-10-17T21:01:39.497Z,102947.81
2022-10-17T21:06:36.932Z,102945.00
2022-10-17T21:11:33.705Z,102947.41
2022-10-17T21:16:31.055Z,102945.94
2022-10-17T21:21:29.047Z,102945.16
2022-10-17T21:26:26.677Z,102951.75
2022-10-17T21:31:26.318Z,102950.13
2022-10-17T21:36:23.698Z,102943.06
2022-10-17T21:41:21.615Z,102949.22
2022-10-17T21:46:19.155Z,102943.34
2022-10-17T21:51:17.650Z,102948.53
2022-10-17T21:56:15.098Z,102950.09
2022-10-17T22:01:13.061Z,102954.00
2022-10-17T22:11:31.730Z,102953.94
2022-10-17T22:16:28.237Z,102947.72
2022-10-17T22:21:25.916Z,102935.09
2022-10-17T22:26:23.079Z,102940.06
2022-10-17T22:31:20.037Z,102933.34
2022-10-17T22:36:16.944Z,102934.41
2022-10-17T22:41:20.444Z,102932.22
2022-10-17T22:46:17.313Z,102927.56
2022-10-17T22:51:14.740Z,102929.03
2022-10-17T22:56:12.164Z,102933.19
2022-10-17T23:01:12.629Z,102920.38
2022-10-17T23:06:09.660Z,102926.38
2022-10-17T23:11:06.634Z,102924.66
2022-10-17T23:16:03.587Z,102927.53
2022-10-17T23:21:01.011Z,102925.34
2022-10-17T23:26:03.107Z,102929.53
2022-10-17T23:31:12.387Z,102928.16
2022-10-17T23:36:10.080Z,102920.66
2022-10-17T23:41:07.026Z,102921.00
2022-10-17T23:46:04.506Z,102920.75
2022-10-17T23:51:01.200Z,102924.81
2022-10-17T23:55:59.498Z,102928.03
